Time;durP1;ratioP1;P1;durP2;ratioP2;P2;SDS_P1;SDS_P2;PMS_P1;PMS_P2;Temp;Humidity;BMP_temperature;BMP_pressure;BME280_temperature;BME280_humidity;BME280_pressure;Samples;Min_cycle;Max_cycle;Signal;HPM_P1;HPM_P2
2022/03/08 00:00:19;;;;;;;1.67;1.30;;;0.20;99.90;;;;;;4934874;29;20023;-79
2022/03/08 00:02:46;;;;;;;1.80;1.20;;;0.20;99.90;;;;;;4935035;29;20043;-80
2022/03/08 00:05:12;;;;;;;1.17;1.08;;;0.20;99.90;;;;;;4935002;29;20035;-80
2022/03/08 00:07:38;;;;;;;2.10;1.20;;;0.20;99.90;;;;;;4934943;29;20098;-80
2022/03/08 00:10:06;;;;;;;1.25;1.15;;;0.20;99.90;;;;;;4934813;29;20038;-80
2022/03/08 00:12:32;;;;;;;1.92;1.10;;;0.10;99.90;;;;;;4933167;29;20372;-80
2022/03/08 00:14:57;;;;;;;1.52;1.15;;;0.10;99.90;;;;;;4934827;29;20031;-80
2022/03/08 00:17:23;;;;;;;1.02;1.00;;;0.10;99.90;;;;;;4934766;29;20032;-81
2022/03/08 00:19:49;;;;;;;2.05;1.30;;;0.10;99.90;;;;;;4935072;29;20083;-81
2022/03/08 00:22:14;;;;;;;1.73;1.30;;;0.20;99.90;;;;;;4935113;29;20016;-77
2022/03/08 00:24:40;;;;;;;1.20;1.08;;;0.10;99.90;;;;;;4935033;29;20051;-77
2022/03/08 00:27:06;;;;;;;1.98;1.33;;;0.10;99.90;;;;;;4934958;29;20059;-77
2022/03/08 00:29:32;;;;;;;2.15;1.15;;;0.00;99.90;;;;;;4934951;29;20024;-77
2022/03/08 00:31:57;;;;;;;2.75;1.00;;;0.00;99.90;;;;;;4934725;29;20106;-77
2022/03/08 00:34:23;;;;;;;2.08;1.27;;;0.00;99.90;;;;;;4934560;29;20031;-77
2022/03/08 00:36:49;;;;;;;1.88;1.40;;;0.00;99.90;;;;;;4934335;29;20063;-77
2022/03/08 00:39:14;;;;;;;1.40;1.30;;;-0.10;99.90;;;;;;4934457;29;20102;-76
2022/03/08 00:41:40;;;;;;;1.13;0.98;;;-0.10;99.90;;;;;;4934479;29;20034;-77
2022/03/08 00:44:06;;;;;;;1.35;1.00;;;-0.10;99.90;;;;;;4935453;29;20028;-76
2022/03/08 00:46:33;;;;;;;1.05;0.95;;;-0.10;99.90;;;;;;4938259;29;20035;-76
2022/03/08 00:48:58;;;;;;;1.27;0.90;;;-0.10;99.90;;;;;;4938172;29;20023;-76
2022/03/08 00:51:25;;;;;;;2.30;0.98;;;-0.10;99.90;;;;;;4938441;29;20047;-76
2022/03/08 00:53:51;;;;;;;1.25;1.08;;;-0.10;99.90;;;;;;4937959;29;20510;-75
2022/03/08 00:56:17;;;;;;;1.95;0.98;;;0.00;99.90;;;;;;4938080;29;20032;-76
2022/03/08 00:58:42;;;;;;;0.85;0.70;;;0.00;99.90;;;;;;4937927;29;20027;-76
2022/03/08 01:01:08;;;;;;;1.17;1.00;;;0.10;99.90;;;;;;4937919;29;20032;-80
2022/03/08 01:03:34;;;;;;;3.15;0.90;;;0.10;99.90;;;;;;4938115;29;20048;-72
2022/03/08 01:06:00;;;;;;;0.90;0.80;;;0.10;99.90;;;;;;4938179;29;20399;-73
2022/03/08 01:08:26;;;;;;;1.25;0.80;;;0.10;99.90;;;;;;4938134;29;20044;-73
2022/03/08 01:10:52;;;;;;;1.35;0.80;;;0.20;99.90;;;;;;4937715;29;20483;-72
2022/03/08 01:13:18;;;;;;;1.30;0.88;;;0.20;99.90;;;;;;4937977;29;20436;-72
2022/03/08 01:15:43;;;;;;;1.20;1.00;;;0.20;99.90;;;;;;4937669;29;20024;-72
2022/03/08 01:18:09;;;;;;;1.80;0.90;;;0.20;99.90;;;;;;4937610;29;20031;-72
2022/03/08 01:20:35;;;;;;;1.05;1.00;;;0.20;99.90;;;;;;4937790;29;20051;-72
2022/03/08 01:23:01;;;;;;;1.33;1.00;;;0.30;99.90;;;;;;4937522;29;20396;-72
2022/03/08 01:25:27;;;;;;;1.02;0.90;;;0.30;99.90;;;;;;4937624;29;20035;-73
2022/03/08 01:27:53;;;;;;;1.65;0.98;;;0.40;99.90;;;;;;4937648;29;20476;-73
2022/03/08 01:30:21;;;;;;;1.25;1.00;;;0.40;99.90;;;;;;4937437;29;20024;-74
2022/03/08 01:32:47;;;;;;;1.00;0.85;;;0.40;99.90;;;;;;4937236;29;20040;-73
2022/03/08 01:35:14;;;;;;;2.33;1.00;;;0.40;99.90;;;;;;4937773;29;20027;-74
2022/03/08 01:37:40;;;;;;;1.05;0.90;;;0.40;99.90;;;;;;4937250;29;20527;-74
2022/03/08 01:40:08;;;;;;;2.03;1.10;;;0.40;99.90;;;;;;4937461;29;20028;-75
2022/03/08 01:42:34;;;;;;;1.13;1.00;;;0.40;99.90;;;;;;4937582;29;20028;-74
2022/03/08 01:45:00;;;;;;;0.80;0.80;;;0.40;99.90;;;;;;4937302;29;20028;-74
2022/03/08 01:47:27;;;;;;;1.23;0.90;;;0.40;99.90;;;;;;4937558;29;20485;-73
2022/03/08 01:49:54;;;;;;;1.05;0.90;;;0.50;99.90;;;;;;4937135;29;20392;-72
2022/03/08 01:52:22;;;;;;;3.50;1.00;;;0.50;99.90;;;;;;4937098;29;20391;-73
2022/03/08 01:54:49;;;;;;;3.50;1.20;;;0.50;99.90;;;;;;4937043;29;20020;-73
2022/03/08 01:57:15;;;;;;;1.23;1.00;;;0.50;99.90;;;;;;4935890;28;20483;-73
2022/03/08 01:59:42;;;;;;;1.52;1.17;;;0.50;99.90;;;;;;4936973;29;20063;-73
2022/03/08 02:02:09;;;;;;;0.80;0.80;;;0.50;99.90;;;;;;4936947;29;20106;-73
2022/03/08 02:04:35;;;;;;;2.13;1.10;;;0.50;99.90;;;;;;4936945;29;20472;-72
2022/03/08 02:07:01;;;;;;;1.02;0.80;;;0.50;99.90;;;;;;4936837;29;20043;-71
2022/03/08 02:09:27;;;;;;;0.95;0.95;;;0.50;99.90;;;;;;4936839;29;20027;-71
2022/03/08 02:11:53;;;;;;;0.90;0.90;;;0.60;99.90;;;;;;4936549;29;20040;-71
2022/03/08 02:14:19;;;;;;;1.45;1.00;;;0.60;99.90;;;;;;4936615;29;20115;-72
2022/03/08 02:16:45;;;;;;;1.02;0.93;;;0.60;99.90;;;;;;4936449;29;20083;-72
2022/03/08 02:19:15;;;;;;;0.70;0.70;;;0.60;99.90;;;;;;4936479;29;20031;-73
2022/03/08 02:21:42;;;;;;;1.27;1.00;;;0.60;99.90;;;;;;4936643;29;20032;-73
2022/03/08 02:24:08;;;;;;;0.73;0.73;;;0.50;99.90;;;;;;4936712;29;20059;-73
2022/03/08 02:53:13;;;;;;;1.23;1.10;;;0.60;99.90;;;;;;4934938;29;20511;-72
2022/03/08 02:55:38;;;;;;;1.08;1.00;;;0.70;99.90;;;;;;4936035;29;20035;-71
2022/03/08 02:58:05;;;;;;;1.20;1.00;;;0.60;99.90;;;;;;4935894;29;20419;-71
2022/03/08 03:00:32;;;;;;;2.45;1.00;;;0.60;99.90;;;;;;4936086;29;20365;-71
2022/03/08 03:02:59;;;;;;;1.17;1.00;;;0.60;99.90;;;;;;4935891;29;20028;-72
2022/03/08 03:39:05;;;;;;;1.00;1.00;;;0.50;99.90;;;;;;4984634;23;20079;-68
2022/03/08 03:41:31;;;;;;;2.05;1.20;;;0.40;99.90;;;;;;4954320;28;20034;-69
2022/03/08 03:43:57;;;;;;;1.88;1.10;;;0.40;99.90;;;;;;4954458;29;20596;-69
2022/03/08 03:46:22;;;;;;;0.90;0.90;;;0.40;99.90;;;;;;4954169;28;20419;-69
2022/03/08 03:48:48;;;;;;;1.10;0.80;;;0.40;99.90;;;;;;4954200;28;20114;-69
2022/03/08 03:51:16;;;;;;;1.30;1.17;;;0.40;99.90;;;;;;4954139;29;20071;-69
2022/03/08 03:53:42;;;;;;;1.15;0.90;;;0.50;99.90;;;;;;4954108;28;20030;-69
2022/03/08 03:56:08;;;;;;;1.45;1.10;;;0.50;99.90;;;;;;4954120;28;20034;-69
2022/03/08 03:58:34;;;;;;;1.58;0.98;;;0.60;99.90;;;;;;4953936;28;20035;-69
2022/03/08 04:01:00;;;;;;;1.52;1.05;;;0.60;99.90;;;;;;4954420;28;20263;-69
2022/03/08 04:03:25;;;;;;;1.27;1.17;;;0.60;99.90;;;;;;4954181;28;20051;-69
2022/03/08 04:05:51;;;;;;;1.30;0.95;;;0.60;99.90;;;;;;4954365;28;20502;-69
2022/03/08 04:08:20;;;;;;;1.33;1.23;;;0.60;99.90;;;;;;4953991;28;20486;-69
2022/03/08 04:10:49;;;;;;;1.52;1.02;;;0.50;99.90;;;;;;4952678;29;20082;-69
2022/03/08 04:13:16;;;;;;;1.57;1.00;;;0.50;99.90;;;;;;4954199;28;20035;-69
2022/03/08 04:15:42;;;;;;;2.08;1.10;;;0.50;99.90;;;;;;4954112;29;20441;-69
2022/03/08 04:18:08;;;;;;;1.20;1.10;;;0.50;99.90;;;;;;4954374;28;20027;-69
2022/03/08 04:20:34;;;;;;;1.42;1.10;;;0.40;99.90;;;;;;4960105;28;20089;-69
2022/03/08 04:23:00;;;;;;;1.25;1.00;;;0.40;99.90;;;;;;4960430;28;20489;-69
2022/03/08 04:25:25;;;;;;;1.65;1.30;;;0.40;99.90;;;;;;4960483;28;20541;-69
2022/03/08 04:27:51;;;;;;;2.13;1.20;;;0.40;99.90;;;;;;4960140;29;20047;-69
2022/03/08 04:30:17;;;;;;;1.40;1.25;;;0.40;99.90;;;;;;4960348;29;20023;-69
2022/03/08 04:32:43;;;;;;;1.20;1.10;;;0.40;99.90;;;;;;4960130;28;20036;-68
2022/03/08 04:35:09;;;;;;;1.45;1.30;;;0.40;99.90;;;;;;4960471;28;20489;-69
2022/03/08 04:37:35;;;;;;;1.85;1.13;;;0.50;99.90;;;;;;4959801;28;20062;-68
2022/03/08 04:40:02;;;;;;;1.08;1.00;;;0.50;99.90;;;;;;4960171;28;20024;-68
2022/03/08 04:42:28;;;;;;;1.80;1.50;;;0.50;99.90;;;;;;4960266;28;20027;-68
2022/03/08 04:44:54;;;;;;;1.40;1.30;;;0.50;99.90;;;;;;4959038;29;20031;-67
2022/03/08 04:47:20;;;;;;;1.25;1.15;;;0.50;99.90;;;;;;4959935;29;20533;-68
2022/03/08 04:49:46;;;;;;;1.10;1.00;;;0.50;99.90;;;;;;4959987;28;20031;-68
2022/03/08 04:52:11;;;;;;;2.25;1.30;;;0.40;99.90;;;;;;4959962;29;20086;-69
2022/03/08 04:54:37;;;;;;;1.42;1.20;;;0.30;99.90;;;;;;4960062;29;20034;-69
2022/03/08 04:57:03;;;;;;;1.50;1.17;;;0.30;99.90;;;;;;4960015;28;20399;-69
2022/03/08 04:59:29;;;;;;;1.52;1.42;;;0.40;99.90;;;;;;4960005;28;20019;-69
2022/03/08 05:01:55;;;;;;;4.43;1.25;;;0.40;99.90;;;;;;4959913;29;20027;-69
2022/03/08 05:04:21;;;;;;;1.40;1.30;;;0.40;99.90;;;;;;4959734;28;20551;-68
2022/03/08 05:06:47;;;;;;;1.45;1.20;;;0.50;99.90;;;;;;4959836;28;20027;-68
2022/03/08 05:09:13;;;;;;;1.23;1.02;;;0.50;99.90;;;;;;4959720;28;20394;-69
2022/03/08 05:11:39;;;;;;;1.38;1.27;;;0.50;99.90;;;;;;4959813;29;20046;-68
2022/03/08 05:14:06;;;;;;;2.05;1.25;;;0.50;99.90;;;;;;4959930;28;20435;-69
2022/03/08 05:16:32;;;;;;;2.35;1.25;;;0.50;99.90;;;;;;4959521;28;20102;-69
2022/03/08 05:18:58;;;;;;;1.52;1.42;;;0.50;99.90;;;;;;4959666;29;20027;-69
2022/03/08 05:21:23;;;;;;;1.52;1.27;;;0.50;99.90;;;;;;4959661;28;20031;-68
2022/03/08 05:23:50;;;;;;;1.35;1.15;;;0.50;99.90;;;;;;4959552;28;20033;-68
2022/03/08 05:26:15;;;;;;;1.30;1.10;;;0.50;99.90;;;;;;4959604;28;20031;-68
2022/03/08 05:28:44;;;;;;;1.52;1.20;;;0.50;99.90;;;;;;4959409;28;20027;-69
2022/03/08 05:31:13;;;;;;;2.45;1.70;;;0.50;99.90;;;;;;4957698;28;20414;-70
2022/03/08 05:33:39;;;;;;;1.83;1.17;;;0.50;99.90;;;;;;4956690;28;20050;-72
2022/03/08 05:36:06;;;;;;;1.48;1.17;;;0.50;99.90;;;;;;4956509;29;20255;-72
2022/03/08 05:38:31;;;;;;;1.42;1.17;;;0.50;99.90;;;;;;4956010;28;20047;-77
2022/03/08 05:40:59;;;;;;;3.05;1.40;;;0.50;99.90;;;;;;4956290;29;20483;-75
2022/03/08 05:43:25;;;;;;;2.17;1.20;;;0.50;99.90;;;;;;4955775;28;20103;-74
2022/03/08 05:45:50;;;;;;;2.35;1.40;;;1.20;99.90;;;;;;4956511;29;20114;-71
2022/03/08 05:48:16;;;;;;;1.52;1.30;;;1.30;99.90;;;;;;4956277;29;20561;-75
2022/03/08 05:50:42;;;;;;;2.13;1.60;;;1.10;99.90;;;;;;4956178;29;20038;-77
2022/03/08 05:53:07;;;;;;;1.70;1.23;;;0.80;99.90;;;;;;4955002;29;20525;-74
2022/03/08 05:55:33;;;;;;;2.40;1.50;;;0.60;99.90;;;;;;4955822;29;20102;-76
2022/03/08 05:57:59;;;;;;;1.60;1.40;;;0.40;99.90;;;;;;4955434;28;20034;-75
2022/03/08 06:00:25;;;;;;;1.45;1.30;;;0.30;99.90;;;;;;4955223;28;20031;-76
2022/03/08 06:02:51;;;;;;;1.75;1.55;;;0.20;99.90;;;;;;4955291;28;20095;-76
2022/03/08 06:05:16;;;;;;;2.72;2.10;;;0.20;99.90;;;;;;4955381;29;20034;-76
2022/03/08 06:07:42;;;;;;;1.40;1.30;;;0.10;99.90;;;;;;4955409;28;20483;-76
2022/03/08 06:10:09;;;;;;;2.08;1.60;;;0.10;99.90;;;;;;4955069;28;20147;-76
2022/03/08 06:12:36;;;;;;;1.60;1.40;;;0.10;99.90;;;;;;4955147;28;20110;-76
2022/03/08 06:15:02;;;;;;;1.52;1.42;;;0.10;99.90;;;;;;4952504;28;20024;-75
2022/03/08 06:17:28;;;;;;;2.53;1.35;;;0.10;99.90;;;;;;4948578;28;20026;-75
2022/03/08 06:19:54;;;;;;;1.40;1.30;;;0.10;99.90;;;;;;4953620;29;20402;-75
2022/03/08 06:22:19;;;;;;;2.75;1.60;;;0.20;99.90;;;;;;4953325;29;20036;-76
2022/03/08 06:24:45;;;;;;;1.67;1.58;;;0.20;99.90;;;;;;4955554;28;20106;-72
2022/03/08 06:27:11;;;;;;;1.98;1.58;;;0.20;99.90;;;;;;4955628;29;20078;-72
2022/03/08 06:29:37;;;;;;;2.55;1.52;;;0.10;99.90;;;;;;4955649;28;20028;-74
2022/03/08 06:32:03;;;;;;;2.28;1.65;;;0.20;99.90;;;;;;4955521;29;20465;-76
2022/03/08 06:34:28;;;;;;;1.60;1.40;;;0.30;99.90;;;;;;4955354;28;20030;-75
2022/03/08 06:36:54;;;;;;;2.83;1.85;;;0.30;99.90;;;;;;4955266;28;20035;-76
2022/03/08 06:39:20;;;;;;;2.60;1.52;;;0.20;99.90;;;;;;4955507;29;20050;-76
2022/03/08 06:41:46;;;;;;;3.05;1.60;;;0.10;99.90;;;;;;4954783;28;20379;-76
2022/03/08 06:44:11;;;;;;;3.65;2.50;;;0.00;99.90;;;;;;4955325;28;20054;-76
2022/03/08 06:46:41;;;;;;;4.40;2.40;;;-0.10;99.90;;;;;;4955304;28;20027;-75
2022/03/08 06:49:08;;;;;;;9.18;2.50;;;-0.20;99.90;;;;;;4955389;28;20023;-76
2022/03/08 06:51:34;;;;;;;3.80;2.45;;;-0.10;99.90;;;;;;4954910;28;20043;-76
2022/03/08 06:54:00;;;;;;;4.65;2.72;;;-0.20;99.90;;;;;;4954796;28;20042;-75
2022/03/08 06:56:26;;;;;;;6.55;2.80;;;-0.10;99.90;;;;;;4955045;28;20027;-76
2022/03/08 06:58:52;;;;;;;4.38;2.53;;;-0.20;99.90;;;;;;4953760;28;20159;-78
2022/03/08 07:01:17;;;;;;;4.43;2.60;;;-0.20;99.90;;;;;;4955327;28;20475;-77
2022/03/08 07:03:43;;;;;;;3.53;2.80;;;-0.20;99.90;;;;;;4954792;29;20454;-77
2022/03/08 07:06:10;;;;;;;4.60;2.90;;;0.10;99.90;;;;;;4955114;28;20027;-74
2022/03/08 07:08:37;;;;;;;5.95;2.83;;;0.40;99.90;;;;;;4954652;29;20036;-72
2022/03/08 07:11:04;;;;;;;3.70;2.58;;;0.20;99.90;;;;;;4954648;28;20496;-69
2022/03/08 07:13:30;;;;;;;4.50;2.60;;;0.10;99.90;;;;;;4954712;28;20513;-69
2022/03/08 07:15:56;;;;;;;8.82;3.13;;;0.00;99.90;;;;;;4954320;28;20030;-71
2022/03/08 07:18:23;;;;;;;5.90;2.88;;;-0.10;99.90;;;;;;4954062;28;20027;-68
2022/03/08 07:20:50;;;;;;;4.57;2.60;;;-0.30;99.90;;;;;;4954200;28;20386;-68
2022/03/08 07:23:16;;;;;;;3.63;2.60;;;-0.30;99.90;;;;;;4954021;28;20024;-71
2022/03/08 07:25:42;;;;;;;3.00;2.47;;;-0.20;99.90;;;;;;4954610;28;20035;-73
2022/03/08 07:28:08;;;;;;;4.65;2.97;;;-0.20;99.90;;;;;;4954544;28;20098;-74
2022/03/08 07:30:35;;;;;;;3.75;2.38;;;-0.20;99.90;;;;;;4954405;28;20027;-77
2022/03/08 07:33:01;;;;;;;4.80;2.83;;;-0.20;99.90;;;;;;4969403;28;20059;-76
2022/03/08 07:35:26;;;;;;;3.80;2.88;;;-0.20;99.90;;;;;;4954624;29;20435;-74
2022/03/08 07:37:52;;;;;;;5.68;2.40;;;-0.10;99.90;;;;;;4953957;28;20392;-75
2022/03/08 07:40:18;;;;;;;4.47;2.70;;;-0.10;99.90;;;;;;4954493;29;20024;-74
2022/03/08 07:42:44;;;;;;;6.93;3.17;;;-0.10;99.90;;;;;;4954143;28;20486;-75
2022/03/08 07:45:09;;;;;;;5.68;3.05;;;-0.20;99.90;;;;;;4954517;29;20117;-77
2022/03/08 07:47:35;;;;;;;5.65;2.70;;;-0.20;99.90;;;;;;4954064;28;20086;-74
2022/03/08 07:50:01;;;;;;;3.03;2.38;;;-0.10;99.90;;;;;;4952834;29;20038;-73
2022/03/08 07:52:27;;;;;;;2.35;2.15;;;-0.10;99.90;;;;;;4954038;28;20047;-74
2022/03/08 07:54:53;;;;;;;4.35;2.47;;;-0.10;99.90;;;;;;4952359;28;20471;-74
2022/03/08 07:57:18;;;;;;;4.93;3.10;;;-0.10;99.90;;;;;;4953812;29;20034;-74
2022/03/08 07:59:44;;;;;;;4.32;2.45;;;-0.10;99.90;;;;;;4953485;28;20041;-76
2022/03/08 08:02:10;;;;;;;5.75;2.47;;;-0.20;99.90;;;;;;4950189;29;20027;-76
2022/03/08 08:04:36;;;;;;;3.30;2.78;;;-0.20;99.90;;;;;;4952876;29;20102;-75
2022/03/08 08:07:01;;;;;;;4.57;2.60;;;-0.20;99.90;;;;;;4951927;29;20068;-76
2022/03/08 08:09:27;;;;;;;4.65;2.92;;;-0.10;99.90;;;;;;4952963;29;20046;-75
2022/03/08 08:11:53;;;;;;;4.63;2.90;;;-0.10;99.90;;;;;;4950662;29;20090;-75
2022/03/08 08:14:19;;;;;;;3.90;2.10;;;-0.10;99.90;;;;;;4953124;29;20044;-76
2022/03/08 08:16:45;;;;;;;2.75;2.20;;;-0.10;99.90;;;;;;4953314;29;20637;-76
2022/03/08 08:19:11;;;;;;;4.03;2.60;;;-0.20;99.90;;;;;;4952443;29;20042;-72
2022/03/08 08:21:37;;;;;;;6.05;2.50;;;-0.20;99.90;;;;;;4953701;28;20023;-73
2022/03/08 08:24:04;;;;;;;7.07;2.60;;;-0.20;99.90;;;;;;4953741;29;20078;-75
2022/03/08 08:26:30;;;;;;;8.10;2.00;;;-0.10;99.90;;;;;;4952346;29;20033;-76
2022/03/08 08:28:56;;;;;;;3.05;2.55;;;0.60;99.90;;;;;;4953564;28;20028;-76
2022/03/08 08:31:23;;;;;;;4.88;2.33;;;1.90;99.90;;;;;;4952876;28;20028;-76
2022/03/08 08:33:52;;;;;;;4.88;2.38;;;1.50;99.90;;;;;;4953528;28;20050;-76
2022/03/08 08:36:18;;;;;;;3.10;2.65;;;1.00;99.90;;;;;;4953847;28;20031;-76
2022/03/08 08:38:44;;;;;;;3.13;2.42;;;0.80;99.90;;;;;;4953230;28;20446;-76
2022/03/08 08:41:09;;;;;;;3.55;2.35;;;0.60;99.90;;;;;;4968511;28;20502;-76
2022/03/08 08:43:35;;;;;;;3.38;2.50;;;0.50;99.90;;;;;;4953563;29;20118;-76
2022/03/08 08:46:01;;;;;;;5.85;2.95;;;0.50;99.90;;;;;;4953709;29;20031;-76
2022/03/08 08:48:27;;;;;;;8.32;2.85;;;0.40;99.90;;;;;;4953557;29;20035;-76
2022/03/08 08:50:53;;;;;;;2.95;2.65;;;0.40;99.90;;;;;;4952502;29;20520;-76
2022/03/08 08:53:20;;;;;;;3.70;2.50;;;0.40;99.90;;;;;;4934348;29;20031;-76
2022/03/08 08:55:45;;;;;;;3.03;2.47;;;0.30;99.90;;;;;;4934567;29;20024;-76
2022/03/08 08:58:11;;;;;;;4.18;2.50;;;0.40;99.90;;;;;;4934696;29;20030;-76
2022/03/08 09:00:37;;;;;;;4.32;2.83;;;0.40;99.90;;;;;;4934388;29;20032;-76
2022/03/08 09:03:06;;;;;;;3.45;2.40;;;0.40;99.90;;;;;;4934448;29;20051;-76
2022/03/08 09:05:31;;;;;;;2.88;2.20;;;0.40;99.90;;;;;;4935741;29;20024;-76
2022/03/08 09:07:57;;;;;;;4.10;2.40;;;0.40;99.90;;;;;;4938113;29;20463;-76
2022/03/08 09:10:23;;;;;;;3.65;2.70;;;0.40;99.90;;;;;;4937831;29;20050;-76
2022/03/08 09:12:51;;;;;;;3.03;2.38;;;0.40;99.90;;;;;;4937686;29;20042;-75
2022/03/08 09:15:19;;;;;;;3.65;2.67;;;0.50;99.90;;;;;;4937852;29;20035;-76
2022/03/08 09:17:45;;;;;;;2.75;2.17;;;0.50;99.90;;;;;;4937711;29;20038;-76
2022/03/08 09:20:12;;;;;;;3.75;2.60;;;0.50;99.90;;;;;;4937945;29;20107;-76
2022/03/08 09:22:39;;;;;;;3.53;2.60;;;0.60;99.90;;;;;;4952406;29;20431;-75
2022/03/08 09:25:05;;;;;;;4.53;2.58;;;0.60;99.90;;;;;;4937961;29;20031;-76
2022/03/08 09:27:31;;;;;;;3.72;2.60;;;0.60;99.90;;;;;;4937674;29;20106;-76
2022/03/08 09:29:57;;;;;;;3.47;2.40;;;0.60;99.90;;;;;;4937703;29;20499;-76
2022/03/08 09:32:23;;;;;;;3.35;2.20;;;0.60;99.90;;;;;;4937474;29;20040;-74
2022/03/08 09:34:49;;;;;;;2.72;1.83;;;1.90;99.90;;;;;;4937329;29;20020;-75
2022/03/08 09:37:15;;;;;;;2.75;1.90;;;1.70;99.90;;;;;;4939246;29;20055;-78
2022/03/08 09:39:41;;;;;;;6.57;2.20;;;1.40;99.90;;;;;;4955734;28;20023;-77
2022/03/08 09:42:07;;;;;;;3.95;2.05;;;1.30;99.90;;;;;;4956154;28;20030;-77
2022/03/08 09:44:33;;;;;;;3.35;2.05;;;1.20;99.90;;;;;;4956462;28;20078;-77
2022/03/08 09:46:59;;;;;;;3.45;2.08;;;1.10;99.90;;;;;;4956198;28;20027;-77
2022/03/08 09:49:25;;;;;;;4.50;2.10;;;1.40;99.90;;;;;;4955831;28;20019;-73
2022/03/08 09:51:53;;;;;;;2.95;2.10;;;2.20;99.90;;;;;;4956344;28;20047;-73
2022/03/08 09:54:19;;;;;;;2.60;1.98;;;2.00;99.90;;;;;;4956276;28;20483;-73
2022/03/08 09:56:45;;;;;;;3.05;2.15;;;1.70;99.90;;;;;;4956092;28;20043;-73
2022/03/08 09:59:15;;;;;;;4.82;2.15;;;1.50;99.90;;;;;;4956189;28;20032;-73
2022/03/08 10:01:42;;;;;;;5.68;2.60;;;1.30;99.90;;;;;;4955865;28;20031;-74
2022/03/08 10:04:07;;;;;;;2.65;2.10;;;1.20;99.90;;;;;;4954413;28;20498;-74
2022/03/08 10:06:41;;;;;;;3.20;2.30;;;1.00;99.90;;;;;;4954071;29;20035;-75
2022/03/08 10:09:15;;;;;;;3.17;2.10;;;1.00;99.90;;;;;;4950222;29;20015;-76
2022/03/08 10:11:41;;;;;;;3.30;2.42;;;0.90;99.90;;;;;;4955195;28;20036;-78
2022/03/08 10:14:12;;;;;;;4.07;2.55;;;0.90;99.90;;;;;;4955780;28;20509;-75
2022/03/08 10:16:48;;;;;;;3.92;2.55;;;0.90;99.90;;;;;;4953250;28;20038;-73
2022/03/08 10:19:14;;;;;;;4.65;2.70;;;1.00;99.90;;;;;;4955617;28;20034;-76
2022/03/08 10:21:42;;;;;;;5.40;2.30;;;0.90;99.90;;;;;;4955078;28;20027;-74
2022/03/08 10:24:19;;;;;;;3.17;2.10;;;1.00;99.90;;;;;;4955676;28;20035;-77
2022/03/08 10:26:50;;;;;;;2.97;2.08;;;1.00;99.90;;;;;;4951866;28;20114;-76
2022/03/08 10:29:34;;;;;;;4.75;2.47;;;0.90;99.90;;;;;;4951551;29;20474;-82
2022/03/08 10:32:16;;;;;;;7.57;2.75;;;0.90;99.90;;;;;;4953686;29;20035;-76
2022/03/08 10:34:44;;;;;;;2.53;2.03;;;1.00;99.90;;;;;;4955472;28;20031;-79
2022/03/08 10:37:14;;;;;;;3.22;2.22;;;2.80;99.90;;;;;;4953552;28;20074;-79
2022/03/08 10:39:59;;;;;;;4.45;2.33;;;3.50;99.90;;;;;;4953504;29;20471;-80
2022/03/08 10:42:30;;;;;;;2.97;1.63;;;3.10;99.90;;;;;;4954789;28;20038;-82
2022/03/08 10:45:06;;;;;;;;;;;4.60;99.90;;;;;;4952581;28;20470;-80
2022/03/08 10:47:53;;;;;;;7.35;2.40;;;5.30;99.90;;;;;;4953712;28;20362;-79
2022/03/08 10:50:23;;;;;;;38.67;3.50;;;4.30;99.90;;;;;;4954415;28;20123;-79
2022/03/08 10:52:52;;;;;;;16.00;3.80;;;3.50;99.90;;;;;;4955001;28;20066;-80
2022/03/08 10:55:33;;;;;;;6.90;2.75;;;2.90;99.90;;;;;;4953781;29;20475;-79
2022/03/08 10:58:08;;;;;;;3.40;2.42;;;2.50;99.90;;;;;;4953782;29;20031;-79
2022/03/08 11:00:50;;;;;;;4.32;2.55;;;2.20;99.90;;;;;;4955173;28;20031;-80
2022/03/08 11:03:20;;;;;;;3.40;2.10;;;2.00;99.90;;;;;;4955159;28;20110;-79
2022/03/08 11:05:50;;;;;;;4.55;3.00;;;1.80;99.90;;;;;;4953584;29;20026;-79
2022/03/08 11:08:17;;;;;;;8.20;3.95;;;1.70;99.90;;;;;;4955272;28;20031;-79
2022/03/08 11:10:44;;;;;;;6.82;3.22;;;1.70;99.90;;;;;;4954609;28;20546;-80
2022/03/08 11:13:11;;;;;;;3.83;2.40;;;1.70;99.90;;;;;;4955106;28;20077;-80
2022/03/08 11:15:40;;;;;;;4.93;2.85;;;1.60;99.90;;;;;;4954681;28;20490;-79
2022/03/08 11:18:08;;;;;;;5.95;3.00;;;1.50;99.90;;;;;;4955025;28;20042;-79
2022/03/08 11:20:35;;;;;;;1.83;1.60;;;1.50;99.90;;;;;;4954628;28;20028;-79
2022/03/08 11:23:02;;;;;;;3.05;2.08;;;1.40;99.90;;;;;;4954625;28;20606;-80
2022/03/08 11:25:35;;;;;;;2.72;2.13;;;1.20;99.90;;;;;;4954629;28;20086;-79
2022/03/08 11:28:03;;;;;;;3.08;2.03;;;1.00;99.90;;;;;;4954465;28;20475;-80
2022/03/08 11:30:36;;;;;;;2.30;2.00;;;0.90;99.90;;;;;;4953350;29;20114;-79
2022/03/08 11:33:39;;;;;;;3.80;2.10;;;0.80;99.90;;;;;;4953277;29;20442;-79
2022/03/08 11:36:35;;;;;;;9.07;2.55;;;0.80;99.90;;;;;;4954582;28;20086;-80
2022/03/08 11:39:13;;;;;;;5.25;2.85;;;0.70;99.90;;;;;;4954167;28;20062;-79
2022/03/08 11:41:38;;;;;;;5.00;3.45;;;0.70;99.90;;;;;;4954414;29;20098;-79
2022/03/08 11:44:04;;;;;;;6.03;3.33;;;0.70;99.90;;;;;;4954047;28;20162;-79
2022/03/08 11:46:30;;;;;;;9.18;3.83;;;0.70;99.90;;;;;;4954256;28;20095;-79
2022/03/08 11:49:05;;;;;;;5.95;3.58;;;0.60;99.90;;;;;;4954352;29;20038;-80
2022/03/08 11:51:32;;;;;;;7.53;4.25;;;0.50;99.90;;;;;;4953952;28;20035;-79
2022/03/08 11:54:08;;;;;;;3.75;3.33;;;0.40;99.90;;;;;;4953606;28;20386;-79
2022/03/08 11:56:47;;;;;;;6.05;3.95;;;0.50;99.90;;;;;;4954118;28;20039;-79
2022/03/08 11:59:13;;;;;;;9.13;3.95;;;0.40;99.90;;;;;;4954309;28;20394;-80
2022/03/08 12:01:39;;;;;;;7.88;3.80;;;0.40;99.90;;;;;;4952821;29;20035;-80
2022/03/08 12:04:09;;;;;;;5.72;4.28;;;0.20;99.90;;;;;;4954046;29;20077;-79
2022/03/08 12:06:36;;;;;;;5.20;4.13;;;0.30;99.90;;;;;;4953982;28;20037;-80
2022/03/08 12:09:07;;;;;;;8.38;4.63;;;0.20;99.90;;;;;;4953775;28;20120;-80
2022/03/08 12:11:35;;;;;;;6.63;4.45;;;0.20;99.90;;;;;;4954379;28;20047;-80
2022/03/08 12:14:04;;;;;;;7.25;4.15;;;0.20;99.90;;;;;;4953847;28;20020;-79
2022/03/08 12:16:30;;;;;;;7.18;4.68;;;0.10;99.90;;;;;;4952660;29;20019;-79
2022/03/08 12:18:58;;;;;;;7.28;4.53;;;0.20;99.90;;;;;;4953930;28;20034;-80
2022/03/08 12:21:24;;;;;;;6.07;4.93;;;0.10;99.90;;;;;;4954077;28;20023;-80
2022/03/08 12:23:52;;;;;;;8.25;5.30;;;0.10;99.90;;;;;;4953744;29;20453;-80
2022/03/08 12:26:36;;;;;;;8.82;5.40;;;0.10;99.90;;;;;;4953983;29;20019;-79
2022/03/08 12:29:23;;;;;;;7.38;4.75;;;0.10;99.90;;;;;;4953734;28;20024;-80
2022/03/08 12:32:06;;;;;;;7.78;4.75;;;0.10;99.90;;;;;;4953604;28;20395;-80
2022/03/08 12:34:37;;;;;;;9.07;5.10;;;0.10;99.90;;;;;;4953746;28;20028;-80
2022/03/08 12:37:14;;;;;;;6.00;4.40;;;0.10;99.90;;;;;;4953720;28;20277;-80
2022/03/08 12:40:01;;;;;;;7.97;5.13;;;0.00;99.90;;;;;;4952505;28;20031;-80
2022/03/08 12:42:33;;;;;;;6.00;4.25;;;-0.10;99.90;;;;;;4957867;28;20451;-80
2022/03/08 12:45:24;;;;;;;6.18;4.38;;;0.00;99.90;;;;;;4957346;29;20019;-80
2022/03/08 12:48:07;;;;;;;6.57;4.47;;;-0.10;99.90;;;;;;4957448;28;20019;-80
2022/03/08 12:50:35;;;;;;;7.13;5.00;;;-0.20;99.90;;;;;;4957488;28;20058;-79
2022/03/08 12:53:09;;;;;;;8.13;5.22;;;-0.10;99.90;;;;;;4956884;28;20118;-80
2022/03/08 12:55:45;;;;;;;7.55;4.70;;;-0.10;99.90;;;;;;4957277;28;20058;-79
2022/03/08 12:58:14;;;;;;;7.32;4.70;;;-0.20;99.90;;;;;;4955697;29;20086;-80
2022/03/08 13:00:54;;;;;;;8.85;5.63;;;-0.20;99.90;;;;;;4957256;28;20023;-79
2022/03/08 13:03:27;;;;;;;9.73;5.32;;;-0.30;99.90;;;;;;4957304;28;20132;-79
2022/03/08 13:05:55;;;;;;;7.50;4.50;;;-0.30;99.90;;;;;;4956758;28;20034;-79
2022/03/08 13:08:23;;;;;;;8.57;4.97;;;-0.40;99.90;;;;;;4956649;28;20039;-79
2022/03/08 13:10:54;;;;;;;9.75;5.43;;;-0.30;99.90;;;;;;4956536;28;20479;-80
2022/03/08 13:13:20;;;;;;;8.25;5.28;;;-0.30;99.90;;;;;;4956766;28;20063;-79
2022/03/08 13:15:48;;;;;;;10.07;4.80;;;-0.30;99.90;;;;;;4956581;28;20042;-79
2022/03/08 13:18:23;;;;;;;9.98;5.95;;;-0.30;99.90;;;;;;4956813;28;20154;-80
2022/03/08 13:20:50;;;;;;;9.07;5.50;;;-0.30;99.90;;;;;;4956571;28;20020;-80
2022/03/08 13:23:24;;;;;;;10.80;4.38;;;-0.30;99.90;;;;;;4956747;28;20027;-80
2022/03/08 13:25:53;;;;;;;12.02;5.82;;;-0.30;99.90;;;;;;4956813;28;20023;-80
2022/03/08 13:28:23;;;;;;;7.72;4.95;;;-0.30;99.90;;;;;;4956633;28;20055;-80
2022/03/08 13:30:51;;;;;;;6.82;5.15;;;-0.40;99.90;;;;;;4956308;29;20058;-80
2022/03/08 13:33:17;;;;;;;8.25;5.18;;;-0.40;99.90;;;;;;4956911;28;20035;-80
2022/03/08 13:35:53;;;;;;;8.38;5.60;;;-0.40;99.90;;;;;;4956501;29;20483;-80
2022/03/08 13:38:40;;;;;;;12.43;5.63;;;-0.40;99.90;;;;;;4956340;28;20119;-80
2022/03/08 13:41:12;;;;;;;13.40;5.28;;;-0.40;99.90;;;;;;4956369;28;20034;-80
2022/03/08 13:43:40;;;;;;;6.88;5.22;;;-0.40;99.90;;;;;;4956700;28;20026;-80
2022/03/08 13:46:39;;;;;;;7.65;4.80;;;-0.30;99.90;;;;;;4956132;28;20051;-80
2022/03/08 13:49:08;;;;;;;8.98;5.80;;;-0.30;99.90;;;;;;4956279;28;20043;-80
2022/03/08 13:51:37;;;;;;;7.63;4.80;;;-0.40;99.90;;;;;;4953741;28;20074;-80
2022/03/08 13:54:06;;;;;;;8.70;5.25;;;0.30;99.90;;;;;;4956076;28;20467;-75
2022/03/08 13:56:48;;;;;;;8.15;5.20;;;0.60;99.90;;;;;;4954799;29;20114;-73
2022/03/08 13:59:31;;;;;;;7.85;4.97;;;0.40;99.90;;;;;;4956248;28;20431;-75